KAMW/AMW METAR and TAF weather

Enter ICAO airport designator
Station Type Date Time Source
KAMW METAR 2019/08/19 11:53 UTC NOAA

KAMW 191153Z AUTO 01004KT 10SM SCT037 16/14 A3001 RMK AO2 SLP156 70001 T01610144 10206 20161 53014


Station Type Date Time Source
KAMW Decoded METAR 2019/08/19 11:53 UTC NOAA

Station name not available
Aug 19, 2019 - 07:53 AM EDT / 2019.08.19 1153 UTC
Wind: from the N (010 degrees) at 5 MPH (4 KT):0
Visibility: 10 mile(s):0
Sky conditions: partly cloudy
Temperature: 61.0 F (16.1 C)
Dew Point: 57.9 F (14.4 C)
Relative Humidity: 89%
Pressure (altimeter): 30.01 in. Hg (1016 hPa)
Pressure tendency: 0.04 inches (1.4 hPa) higher than three hours ago
ob: KAMW 191153Z AUTO 01004KT 10SM SCT037 16/14 A3001 RMK AO2 SLP156 70001 T01610144 10206 20161 53014
cycle: 12

Station Type Date Time Source
KAMW TAF UTC NOAA

Error!

Example: see airport list